LiveATC.Net - Listen to live air traffic control over the Internet!

Find LiveATC Audio Streams


Airport/ARTCC Code

Frequency Search
(e.g., 124.400, 128.75)
Site-wide search
 


Browse LiveATC Feeds
Top 50 LiveATC Feeds
LiveATC Feed Map
Bad Weather Areas

LiveATC FAQ
Offer LiveATC feed
Contact LiveATC.net
Press Inquiries

LiveATC on iPhone
LiveATC on Android

Windows Phone
Windows 8/10

LiveATC Mobile
(Mobile browser)

ATC Audio Archives
Interesting Recordings

LiveATC Forums

Home Page
About LiveATC.net
Make a Donation
Terms of Use
Privacy Policy

Canadian Air Freqs

AIRMETs/SIGMETs

FAA Airport Status
Nat'l Airspace Status
Arrival Demand Charts


Server Software By:
Icecast.org
Liquidsoap

Select an area of interest:
U.S. Feeds: Class B Airports | Class C Airports | Class D/Other Airports | ARTCC (Centers)
International Feeds: Canada | Europe | Oceania | Asia | South America | North/Central America | Africa
Misc Feeds: HF Feeds
Search by ICAO/IATA airport code:   (e.g., kbos, kjfk, lax, eham, etc.)


Currently Available Live Feeds: 2403
Status Updated: Sun Jun 16 2019 13:46:01 UTC


NOTICE

Unauthorized use prohibited. See LiveATC.net Terms of Service

South America Airport Feeds

 

SABE Gnd/Twr/App
Buenos Aires, Argentina

Feed Status: DOWN
Offline since: 2019-06-16 10:06:03 UTC

SABE 161325Z 12018KT 1300 R13/1600D RA OVC005 16/16 Q1021 NOSIG

Aerolineas Argentinas Ops: 131.950
Aerolineas Argentinas Ops: 131.100
Aeroparque Ground: 121.900
Aeroparque Tower: 120.600
Aeroparque Tower: 118.250
Aeroparque Tower: 128.850
Aeroparque Tower: 118.850
Aeroparque Tower: 129.300
Air to Air: 123.450
Baires: 125.900
Baires: 125.300
Baires: 124.900
Cordoba South: 126.500
Ezeiza Ground: 121.750
Ezeiza North: 133.350
Ezeiza North: 124.500
Ezeiza North: 125.600
Ezeiza North: 135.500
Ezeiza South: 124.100
Ezeiza South: 125.200
LAN Ops: 131.700

Powered by aeropuertotucuman.blogspot.com

SAEZ ATIS
Buenos Aires, Argentina

Feed Status: DOWN
Offline since: 2019-06-16 10:07:03 UTC

SAEZ 161323Z 11016G28KT 1000 +RA OVC006 16/16 Q1021 NOSIG

Ezeiza ATIS: 127.800

NOTE: All operating frequencies were removed due to repeated unauthorized inappropriate use

SANT Tower/Apps
Tucuman, Argentina

Feed Status: DOWN
Offline since: 2019-06-16 10:07:03 UTC

SANT 161300Z 09004KT 8000 OVC030 10/07 Q1025

Aeroclub Tucuman: 119.000
Aerolineas Argentinas SOC Salta: 131.100
Aerolineas Argentinas SOC Tucuman: 131.950
Air To Air: 123.450
Andes Lineas Aereas: 132.000
Campo Arenal: 130.950
Catamarca Tower: 118.150
Copa Airlines: 129.400
Cordoba Centro Norte: 125.100
Cordoba Centro Sur: 126.500
Emergency/Guard: 121.500
Lan Argentina Operaciones: 131.700
Lan Peru: 131.300
Salta Tower: 128.850
Santiago del Estero Tower: 118.700
Taca Peru: 126.450
Termas de Rio Hondo: 118.200
Termas de Rio Hondo: 119.850
Tucuman Ground: 121.750
Tucuman Ground: 121.750
Tucuman Tower: 118.350
Tucuman Tower: 119.500

Powered by:

aeropuertotucuman.blogspot.com

SASA Twr/App
Salta, Argentina

Feed Status: DOWN
Offline since: 2019-06-16 10:07:03 UTC

SASA 161200Z 36004KT 9999 VCSH SCT010 OVC015 07/06 Q1023

Cordoba Approach (North): 125.100
Salta Approach: 124.600
Salta Tower: 126.000
Salta Tower/Ground: 128.850

SAZS Tower/Approach
Rio Negro, Argentina

Feed Status: DOWN
Offline since: 2019-06-16 10:06:03 UTC

SAZS 161300Z 14008KT 9999 BKN036 02/M01 Q1031

Bariloche Twr/App: 119.100
Bariloche Twr/App (Aux): 118.650
Chapelco Tower/Approach: 119.600
Comodoro Rivadavia Control: 125.500
Emergency: 121.500
Ezeiza South: 125.200
Puerto Mont Radar North: 121.300
Puerto Mont Radar South: 128.300
Puerto Mont Radio: 126.900


Feed courtesy of: Juan Jose Porta - Bariloche

SBBE Twr/App/SBAZ (Archives)
Belem, Brazil

Feed Status: UP
Listen in your browser - HTML5 player(in browser, HTML5)
Click here to listen with your own player(launches your MP3 player)

SBBE 161300Z 11012KT 9999 SCT020 28/23 Q1015

SBBE Flight Activity (Flightaware)

Listeners: 1 out of 1069 total

Amazonica FIR (SBAZ): 126.500
Amazonica FIR (SBAZ): 128.000
Amazonica FIR (SBAZ): 123.950
Amazonica FIR (SBAZ): 126.150
Amazonica FIR (SBAZ): 126.650
Amazonica FIR (SBAZ): 133.700
Belem Approach: 119.050
Belem Approach: 119.500
Belem Tower: 118.700

SBBH ACC-BS 127.0 (Archives)
Belo Horizonte, Brazil

Feed Status: UP
Listen in your browser - HTML5 player(in browser, HTML5)
Click here to listen with your own player(launches your MP3 player)

SBBH 161300Z 14006KT 9999 SCT035 21/14 Q1027

SBBH Flight Activity (Flightaware)

Listeners: 0 out of 1069 total

Brasilia ACC-BS (Air Control Center): 127.000

SBBH ACC-BS 127.3 (Archives)
Belo Horizonte, Brazil

Feed Status: UP
Listen in your browser - HTML5 player(in browser, HTML5)
Click here to listen with your own player(launches your MP3 player)

SBBH 161300Z 14006KT 9999 SCT035 21/14 Q1027

SBBH Flight Activity (Flightaware)

Listeners: 1 out of 1069 total

Brasilia ACC-BS (Air Control Center): 127.300

SBBH App (Sector 1) (Archives)
Belo Horizonte, Brazil

Feed Status: UP
Listen in your browser - HTML5 player(in browser, HTML5)
Click here to listen with your own player(launches your MP3 player)

SBBH 161300Z 14006KT 9999 SCT035 21/14 Q1027

SBBH Flight Activity (Flightaware)

Listeners: 1 out of 1069 total

Belo Horizonte Approach (Sector 1): 129.100

SBBH App (Sector 2) (Archives)
Belo Horizonte, Brazil

Feed Status: UP
Listen in your browser - HTML5 player(in browser, HTML5)
Click here to listen with your own player(launches your MP3 player)

SBBH 161300Z 14006KT 9999 SCT035 21/14 Q1027

SBBH Flight Activity (Flightaware)

Listeners: 0 out of 1069 total

Belo Horizonte Approach (Sector 2): 129.400

SBBH App/Dep (Archives)
Belo Horizonte, Brazil

Feed Status: UP
Listen in your browser - HTML5 player(in browser, HTML5)
Click here to listen with your own player(launches your MP3 player)

SBBH 161300Z 14006KT 9999 SCT035 21/14 Q1027

SBBH Flight Activity (Flightaware)

Listeners: 0 out of 1069 total

Belo Horizonte Approach: 128.550

SBBI Gnd/Twr (Archives)
Curitiba, Brazil

Feed Status: UP
Listen in your browser - HTML5 player(in browser, HTML5)
Click here to listen with your own player(launches your MP3 player)

SBBI 161300Z 04002KT CAVOK 21/14 Q1028

SBBI Flight Activity (Flightaware)

Listeners: 1 out of 1069 total

Bacacheri Ground: 121.800
Bacacheri Tower: 118.900

SBBV Approach (Archives)
Boa Vista, Brazil

Feed Status: UP
Listen in your browser - HTML5 player(in browser, HTML5)
Click here to listen with your own player(launches your MP3 player)

SBBV 161300Z 16003KT 9999 -RA SCT009 BKN030 BKN080 24/23 Q1016

SBBV Flight Activity (Flightaware)

Listeners: 3 out of 1069 total

Boa Vista Approach: 120.100

SBBV Tower (Archives)
Boa Vista, Brazil

Feed Status: UP
Listen in your browser - HTML5 player(in browser, HTML5)
Click here to listen with your own player(launches your MP3 player)

SBBV 161300Z 16003KT 9999 -RA SCT009 BKN030 BKN080 24/23 Q1016

SBBV Flight Activity (Flightaware)

Listeners: 1 out of 1069 total

Boa Vista Tower: 118.100

SBCT Gnd/Twr/App (Archives)
Curitiba, Brazil

Feed Status: UP
Listen in your browser - HTML5 player(in browser, HTML5)
Click here to listen with your own player(launches your MP3 player)

SBCT 161300Z VRB01KT CAVOK 20/14 Q1028

SBCT Flight Activity (Flightaware)

Listeners: 2 out of 1069 total

Curitiba Approach: 119.950
Curitiba Ground: 121.900
Curitiba Tower: 118.150
Curitiba Tower: 118.900

SBDN Twr/App (Archives)
Presidente Prudente/Sao Paulo, Brazil

Feed Status: UP
Listen in your browser - HTML5 player(in browser, HTML5)
Click here to listen with your own player(launches your MP3 player)

SBDN 161300Z 07007KT CAVOK 24/12 Q1024

SBDN Flight Activity (Flightaware)

Listeners: 0 out of 1069 total

Air-to-Air: 123.450
Curitiba Sector 13: 133.595
Prudente Approach: 118.450
Prudente Tower: 125.450

SBEG Tower/App (Archives)
Manaus, Brazil

Feed Status: UP
Listen in your browser - HTML5 player(in browser, HTML5)
Click here to listen with your own player(launches your MP3 player)

SBEG 161300Z 35002KT 9999 SCT020 FEW025TCU SCT080 26/23 Q1015

SBEG Flight Activity (Flightaware)

Listeners: 3 out of 1069 total

Emergency/Guard: 121.500
Manaus Approach : 119.250
Manaus Approach: 120.400
Manaus Approach: 119.700
Manaus Tower: 118.300

SBFI Twr/App/Ctr/Misc (Archives)
Foz do Iguacu, Brazil

Feed Status: UP
Listen in your browser - HTML5 player(in browser, HTML5)
Click here to listen with your own player(launches your MP3 player)

SBFI 161300Z 10009KT CAVOK 21/17 Q1022

SBFI Flight Activity (Flightaware)

Listeners: 1 out of 1069 total

Asuncion Center (Paraguay): 126.900
Asuncion Center (Paraguay): 128.400
Curitiba Center: 127.200
Curitiba Center: 125.800
Emergency/Guard: 121.500
Foz do Iguacu Approach/Departure: 120.300
Foz do Iguacu Approach/Departure: 119.150
Foz do Iguacu Tower: 118.800
Guarani Approach (Paraguay): 119.300
Puerto Iguazu - Cataratas Tower (Argentina) : 120.700
Resistencia Center (Argentina): 124.300
UNICOM: 123.450

SBFZ Twr/App/Center (Archives)
Fortaleza, Brazil

Feed Status: UP
Listen in your browser - HTML5 player(in browser, HTML5)
Click here to listen with your own player(launches your MP3 player)

SBFZ 161300Z 11011KT 9999 SCT020 29/22 Q1016

SBFZ Flight Activity (Flightaware)

Listeners: 8 out of 1065 total

ACC-RE (Fortaleza Sector): 125.150
ACC-RE (Fortaleza Sector): 126.350
ACC-RE (Fortaleza Sector): 135.250
Fortaleza Approach: 133.000
Fortaleza Tower: 129.000

SBGO Gnd/Twr/App (Archives)
Goiania, Brazil

Feed Status: UP
Listen in your browser - HTML5 player(in browser, HTML5)
Click here to listen with your own player(launches your MP3 player)

SBGO 161300Z 09011KT CAVOK 24/14 Q1025

SBGO Flight Activity (Flightaware)

Listeners: 1 out of 1065 total

Anapolis Approach: 119.150
Anapolis Approach: 120.550
Anapolis Approach: 133.000
Anapolis Approach: 129.450
Emergency/Guard: 121.500
Goiania Ground: 121.700
Goiania Tower: 118.700
Goiania Tower: 121.050

SBGR Twr/App/ACC
Sao Paulo, Brazil

Feed Status: DOWN
Offline since: 2019-05-15 14:24:02 UTC

SBGR 161300Z 04003KT CAVOK 22/17 Q1027

Brasilia Center: 126.150
Brasilia Center: 134.000
Curitiba Center: 126.500
Guarulhos Tower: 135.200
Marte Tower (SBMT): 118.700
Sao Paulo Departure: 120.450
Sao Paulo Final Approach (Guarulhos): 129.750

Sponsored by: aerocus.com

SBJP Twr/Control/Airlines
Joao Pessoa, Brazil

Feed Status: DOWN
Offline since: 2019-06-13 14:31:03 UTC

SBJP 161300Z 21010KT 1600 -RA BR BKN006 OVC070 23/23 Q1017

AZUL: 130.900
GOL: 131.225
Joao Pessoa Tower: 118.300
Recife Control: 119.500
TAM: 130.500

SBJU Tower/Center (Archives)
Juazeiro do Norte, Brazil

Feed Status: UP
Listen in your browser - HTML5 player(in browser, HTML5)
Click here to listen with your own player(launches your MP3 player)

SBJU 161300Z 15006KT 9999 SCT020 27/18 Q1021

SBJU Flight Activity (Flightaware)

Listeners: 1 out of 1065 total

Pilot-to-Pilot: 123.450
Radio Juazeiro: 131.750
Recife Center: 135.250
Recife Center: 125.150

Sponsored by:

SBLO Gnd/Twr/App (Archives)
Londrina, Brazil

Feed Status: UP
Listen in your browser - HTML5 player(in browser, HTML5)
Click here to listen with your own player(launches your MP3 player)

SBLO 161300Z 18002KT CAVOK 22/14 Q1026

SBLO Flight Activity (Flightaware)

Listeners: 2 out of 1065 total

Londrina Approach: 129.700
Londrina Ground: 119.550
Londrina Tower: 118.400

SBMG Twr/App/Misc (Archives)
Maringa, Brazil

Feed Status: UP
Listen in your browser - HTML5 player(in browser, HTML5)
Click here to listen with your own player(launches your MP3 player)

SBMG 161300Z 08006KT CAVOK 25/15 Q1023

SBMG Flight Activity (Flightaware)

Listeners: 8 out of 1065 total

Air to Air: 123.450
Londrina Approach: 129.700
Maringa Tower: 118.750

SBMK RDO/Center
Montes Claros, Brazil

Feed Status: DOWN
Offline since: 2019-06-15 03:17:03 UTC

Brasilia Center (Sector 15): 127.300
Montes Claros RDO: 131.700

SBMQ Tower/App/Center (Archives)
Macapa, Brazil

Feed Status: UP
Listen in your browser - HTML5 player(in browser, HTML5)
Click here to listen with your own player(launches your MP3 player)

SBMQ 161300Z 11005KT 9999 SCT010 BKN015 BKN080 29/26 Q1015

SBMQ Flight Activity (Flightaware)

Listeners: 0 out of 1065 total

Amazonico Center: 123.950
Amazonico Center: 128.000
Macapa Approach: 119.000
Macapa Tower: 118.000

SBNF Tower (Archives)
Navegantes, Brazil

Feed Status: UP
Listen in your browser - HTML5 player(in browser, HTML5)
Click here to listen with your own player(launches your MP3 player)

SBNF 161300Z 25004KT 5000 BR SCT003 BKN006 22/21 Q1023

SBNF Flight Activity (Flightaware)

Listeners: 0 out of 1065 total

Navegantes Tower: 118.200

SBPA Gnd/Twr/App (Archives)
Porto Alegre, Brazil

Feed Status: UP
Listen in your browser - HTML5 player(in browser, HTML5)
Click here to listen with your own player(launches your MP3 player)

SBPA 161300Z 29003KT CAVOK 21/18 Q1022

SBPA Flight Activity (Flightaware)

Listeners: 6 out of 1065 total

BACO (Canoas) Ground: 121.700
BACO (Canoas) Tower: 122.800
BACO (Canoas) Tower: 118.500
Emergency/Guard: 121.500
Porto Alegre Approach Sector 2: 119.000
Porto Alegre Approach Sector 1: 120.100
Porto Alegre Approach Sector 3: 120.550
Porto Alegre Approach Sector 4: 128.900
Porto Alegre Center: 126.750
Porto Alegre Center: 127.400
Porto Alegre Center: 135.850
Porto Alegre Center: 128.450
Salgado Filho Ground: 121.900
Salgado Filho Tower: 118.100

NOTE: Feed site maintenance Nov 13-30, 2016

SBPL RDO (Archives)
Petrolina, Brazil

Feed Status: UP
Listen in your browser - HTML5 player(in browser, HTML5)
Click here to listen with your own player(launches your MP3 player)

SBPL 161300Z 14011KT 9999 FEW025 27/14 Q1020

SBPL Flight Activity (Flightaware)

Listeners: 1 out of 1065 total

Petrolina RDO: 125.700

Sponsored by PNZSpotter

SBQV AFIS/App (Archives)
Vitoria da Conquista, Brazil

Feed Status: UP
Listen in your browser - HTML5 player(in browser, HTML5)
Click here to listen with your own player(launches your MP3 player)

SBQV 161300Z 16014KT 9999 BKN010 17/16 Q1026

SBQV Flight Activity (Flightaware)

Listeners: 3 out of 1065 total

Conquista AFIS: 130.300
Despacho Azul: 131.875
Despacho Passaredo: 132.000

SBRF App 129.60 (Archives)
Recife, Brazil

Feed Status: UP
Listen in your browser - HTML5 player(in browser, HTML5)
Click here to listen with your own player(launches your MP3 player)

SBRF 161300Z 18014KT 4500 -RA BKN007 OVC017 23/22 Q1017

SBRF Flight Activity (Flightaware)

Listeners: 7 out of 1065 total

Recife Approach: 129.600

SBRF Ground (Archives)
Recife, Brazil

Feed Status: UP
Listen in your browser - HTML5 player(in browser, HTML5)
Click here to listen with your own player(launches your MP3 player)

SBRF 161300Z 18014KT 4500 -RA BKN007 OVC017 23/22 Q1017

SBRF Flight Activity (Flightaware)

Listeners: 2 out of 1065 total

Recife Ground: 121.850

SBRF Recife ACC (Archives)
Recife, Brazil

Feed Status: UP
Listen in your browser - HTML5 player(in browser, HTML5)
Click here to listen with your own player(launches your MP3 player)

SBRF 161300Z 18014KT 4500 -RA BKN007 OVC017 23/22 Q1017

SBRF Flight Activity (Flightaware)

Listeners: 3 out of 1065 total

Recife Center: 128.700
Recife Center: 133.650
Recife Center: 134.800

SBRF Tower (Archives)
Recife, Brazil

Feed Status: UP
Listen in your browser - HTML5 player(in browser, HTML5)
Click here to listen with your own player(launches your MP3 player)

SBRF 161300Z 18014KT 4500 -RA BKN007 OVC017 23/22 Q1017

SBRF Flight Activity (Flightaware)

Listeners: 7 out of 1065 total

Recife Tower: 125.250
Recife Tower: 118.350
Recife Tower: 118.900

SBRP Tower/Center (Archives)
Ribeirao Preto, Brazil

Feed Status: UP
Listen in your browser - HTML5 player(in browser, HTML5)
Click here to listen with your own player(launches your MP3 player)

SBRP 161300Z 10005KT CAVOK 23/13 Q1025

SBRP Flight Activity (Flightaware)

Listeners: 2 out of 1065 total

Leite Lopes Tower: 118.000
Pirassununga Center (North): 119.550

SBSN Twr/App/ACC (Archives)
Santarem, Brazil

Feed Status: UP
Listen in your browser - HTML5 player(in browser, HTML5)
Click here to listen with your own player(launches your MP3 player)

SBSN 161300Z 09005KT 9999 -RA SCT010 SCT013 BKN100 25/24 Q1015

SBSN Flight Activity (Flightaware)

Listeners: 0 out of 1065 total

Brasilia Center/ACC: 123.650
Brasilia Center/ACC: 125.050
Santarem Approach: 119.300
Santarem Tower: 118.100

SBSR AFIS/App/Center (Archives)
Sao Jose do Rio Preto, Brazil

Feed Status: UP
Listen in your browser - HTML5 player(in browser, HTML5)
Click here to listen with your own player(launches your MP3 player)

SBSR 161300Z 09004KT CAVOK 24/14 Q1025

SBSR Flight Activity (Flightaware)

Listeners: 6 out of 1065 total

Academia Approach (North Sector): 119.750
Academia Approach (North Sector): 120.400
Brasilia Center: 135.150
Rio Preto Radio AFIS: 130.850

SBTE Twr/App (Archives)
Teresina, Brazil

Feed Status: UP
Listen in your browser - HTML5 player(in browser, HTML5)
Click here to listen with your own player(launches your MP3 player)

SBTE 161300Z 16008KT CAVOK 31/20 Q1015

SBTE Flight Activity (Flightaware)

Listeners: 3 out of 1065 total

Teresina Approach: 119.600
Teresina Tower: 118.800

Sponsored by:

Pistadoiszero

SBRE Recife ACC (Archives)
Paulo Afonso, Brazil

Feed Status: UP
Listen in your browser - HTML5 player(in browser, HTML5)
Click here to listen with your own player(launches your MP3 player)

SBRE Flight Activity (Flightaware)

Listeners: 0 out of 1065 total

Recife Center (ACC): 125.400
Recife Center (ACC): 125.450
Recife Center (ACC): 126.850
Recife Center (ACC): 133.650
Recife Center (ACC): 134.500
Recife Center (ACC): 134.900

SBUF AFIS/Center (Archives)
Paulo Afonso, Brazil

Feed Status: UP
Listen in your browser - HTML5 player(in browser, HTML5)
Click here to listen with your own player(launches your MP3 player)

SBUF 141900Z 14011KT 9999 SCT022 30/17 Q1017

SBUF Flight Activity (Flightaware)

Listeners: 0 out of 1065 total

Paulo Afonso Radio: 125.850
Recife Center: 133.650
Recife Center: 134.500
Recife Center: 125.450

SBVT Center/Misc
Vitoria, Brazil

Feed Status: DOWN
Offline since: 2019-04-22 10:15:03 UTC

SBVT 161300Z 27002KT 9999 FEW030 26/20 Q1024

AZUL Coordination: 130.900
Brasilia Center (Sector S-10): 126.750
Brasilia Center (Sector S-10): 127.300
CHAT Coordination: 123.400
Curitiba Center (Sector S-11): 133.600
Curitiba Center (Sector S-11): 133.400
Emergency/Guard: 121.500
GOL Coordination: 131.225
LIDER Coordination: 130.400
Recife Center (Sector S-14): 124.250
Recife Center (Sector S-14): 126.550
Recife Center (Sector S-15): 134.750
Recife Center (Sector S-15): 126.550
TAM Coordination: 130.500
TRIP Coordination: 131.375

Visit Vitoria Airport Web Site

SBVT Gnd/Twr/App
Vitoria, Brazil

Feed Status: DOWN
Offline since: 2019-04-22 10:15:03 UTC

SBVT 161300Z 27002KT 9999 FEW030 26/20 Q1024

SBVT Approach: 119.850
SBVT Ground: 121.950
SBVT Tower: 118.100

Visit Vitoria Airport Web Site

SCEL Gnd/Twr/Radar (Archives)
Santiago, Chile

Feed Status: UP
Listen in your browser - HTML5 player(in browser, HTML5)
Click here to listen with your own player(launches your MP3 player)

SCEL 161300Z VRB03KT 6000 NSC 04/02 Q1020 NOSIG

SCEL Flight Activity (Flightaware)

Listeners: 4 out of 1065 total

Santiago Authorizations: 121.700
Santiago Control (Lat 3323S North): 128.100
Santiago Control (Lat 3323S South): 126.300
Santiago Ground (Primary): 122.200
Santiago Ground (Secondary): 122.500
Santiago Radar (Arrival, Primary): 129.700
Santiago Radar (Arrival, Secondary): 119.700
Santiago Radar (Arrival, Secondary): 123.800
Santiago Radar (Departure, Primary): 121.100
Santiago Radar (Departure, Secondary): 123.800
Santiago Radar (Information, Primary): 122.400
Santiago Radar (Information, Secondary): 120.800
Santiago Radar (Information, Secondary): 123.800
Santiago Tower (Primary): 118.100
Santiago Tower (Secondary): 118.350
SCTB Tobalaba Tower: 118.700

SCJO Gnd/Twr
Osorno, Chile

Feed Status: DOWN
Offline since: 2019-03-05 19:11:02 UTC

SCJO 161300Z 14002KT CAVOK M00/M00 Q1027

Osorno Ground: 121.700
Osorno Tower: 118.900

Sponsored by: Serticom

SEGU App/Dep (Archives)
Guayaquil, Ecuador

Feed Status: UP
Listen in your browser - HTML5 player(in browser, HTML5)
Click here to listen with your own player(launches your MP3 player)

SEGU 161300Z 21005KT 9999 BKN026 OVC100 25/23 Q1010 NOSIG RMK A2985

SEGU Flight Activity (Flightaware)

Listeners: 0 out of 1065 total

Guayaquil Approach: 120.700

SEGU Gnd/Twr (Archives)
Guayaquil, Ecuador

Feed Status: UP
Listen in your browser - HTML5 player(in browser, HTML5)
Click here to listen with your own player(launches your MP3 player)

SEGU 161300Z 21005KT 9999 BKN026 OVC100 25/23 Q1010 NOSIG RMK A2985

SEGU Flight Activity (Flightaware)

Listeners: 0 out of 1065 total

Guayaquil Ground: 121.900
Guayaquil Tower: 118.300

SEGU Gnd/Twr/App (Archives)
Guayaquil, Ecuador

Feed Status: UP
Listen in your browser - HTML5 player(in browser, HTML5)
Click here to listen with your own player(launches your MP3 player)

SEGU 161300Z 21005KT 9999 BKN026 OVC100 25/23 Q1010 NOSIG RMK A2985

SEGU Flight Activity (Flightaware)

Listeners: 0 out of 1065 total

Guayaquil Approach: 120.700
Guayaquil Ground: 121.900
Guayaquil Tower: 118.300

SEGU Guayaquil Center (Archives)
Guayaquil, Ecuador

Feed Status: UP
Listen in your browser - HTML5 player(in browser, HTML5)
Click here to listen with your own player(launches your MP3 player)

SEGU 161300Z 21005KT 9999 BKN026 OVC100 25/23 Q1010 NOSIG RMK A2985

SEGU Flight Activity (Flightaware)

Listeners: 0 out of 1065 total

Guayaquil Center: 127.950
Guayaquil Center: 128.300

SEQM ATIS (Archives)
Quito, Ecuador

Feed Status: UP
Listen in your browser - HTML5 player(in browser, HTML5)
Click here to listen with your own player(launches your MP3 player)

SEQM 161300Z 17002KT 9999 BCFG FEW030 BKN080 14/13 Q1027 NOSIG RMK A3035

SEQM Flight Activity (Flightaware)

Listeners: 0 out of 1065 total

Quito ATIS: 118.700

SEQM Gnd/Twr/App (Archives)
Quito, Ecuador

Feed Status: UP
Listen in your browser - HTML5 player(in browser, HTML5)
Click here to listen with your own player(launches your MP3 player)

SEQM 161300Z 17002KT 9999 BCFG FEW030 BKN080 14/13 Q1027 NOSIG RMK A3035

SEQM Flight Activity (Flightaware)

Listeners: 0 out of 1065 total

Quito Approach/Departure: 119.700
Quito Approach/Departure: 121.200
Quito Ground: 121.900
Quito Tower: 118.100
Quito Tower (Secondary): 118.350

SEQM Tower (Archives)
Quito, Ecuador

Feed Status: UP
Listen in your browser - HTML5 player(in browser, HTML5)
Click here to listen with your own player(launches your MP3 player)

SEQM 161300Z 17002KT 9999 BCFG FEW030 BKN080 14/13 Q1027 NOSIG RMK A3035

SEQM Flight Activity (Flightaware)

Listeners: 0 out of 1065 total

Quito Tower: 118.100
Quito Tower (Secondary): 118.350

SGAS Gnd/Twr/App/Center (Archives)
Asuncion, Paraguay

Feed Status: UP
Listen in your browser - HTML5 player(in browser, HTML5)
Click here to listen with your own player(launches your MP3 player)

SGAS 161330Z 03008KT CAVOK 25/18 Q1019

SGAS Flight Activity (Flightaware)

Listeners: 0 out of 1065 total

Asuncion Approach: 119.700
Asuncion Control: 126.900
Asuncion Ground: 121.900
Asuncion Tower: 118.100

SKBO Del/Gnd/Twr/App
Bogota, Colombia

Feed Status: DOWN
Offline since: 2019-06-06 03:17:02 UTC

SKBO 161300Z 09004KT 9999 VCSH BKN020 SCT070 14/09 A3039 NOSIG RMK VCSH/NE/E/SE

Bogota Approach: 119.500
Bogota Clearance Delivery: 121.600
Bogota Departure (North): 121.300
Bogota Departure (South): 119.650
Bogota Ground (North): 121.800
Bogota Ground (South): 122.750
Bogota Information: 126.900
Bogota Tower (North): 118.100
Bogota Tower (South): 118.250
Guaymaral Ground: 121.700
Guaymaral Tower: 118.800

SKBQ Approach
Barranquilla, Colombia

Feed Status: DOWN
Offline since: 2019-06-16 11:51:03 UTC

SKBQ 161300Z 05006KT 020V090 9999 BKN012 28/26 A2984 NOSIG

Barranquilla Approach/Departure: 119.100

SKBQ Gnd/Twr
Barranquilla, Colombia

Feed Status: DOWN
Offline since: 2019-05-17 17:03:03 UTC

SKBQ 161300Z 05006KT 020V090 9999 BKN012 28/26 A2984 NOSIG

Barranquilla Ground: 121.900
Barranquilla Tower: 118.450
Barranquilla Tower: 118.100

SPJC Approach
Lima, Peru

Feed Status: DOWN
Offline since: 2019-06-01 01:16:02 UTC

SPJC 161300Z 20005KT 3000 -DZ BR SCT005 OVC010 16/16 Q1014 NOSIG RMK PPTRZ

Lima Approach: 119.700

SPJC Ground
Lima, Peru

Feed Status: DOWN
Offline since: 2019-06-01 01:16:02 UTC

SPJC 161300Z 20005KT 3000 -DZ BR SCT005 OVC010 16/16 Q1014 NOSIG RMK PPTRZ

Lima Ground: 121.900

SPJC Tower
Lima, Peru

Feed Status: DOWN
Offline since: 2019-06-01 01:16:02 UTC

SPJC 161300Z 20005KT 3000 -DZ BR SCT005 OVC010 16/16 Q1014 NOSIG RMK PPTRZ

Lima Tower: 118.100

SPST Tower (Archives)
Tarapoto, Peru

Feed Status: UP
Listen in your browser - HTML5 player(in browser, HTML5)
Click here to listen with your own player(launches your MP3 player)

SPST 161300Z VRB02KT 9999 SCT006 SCT015 BKN080 24/24 Q1016 RMK BIRD HAZARD RWY 17/35 PP000

SPST Flight Activity (Flightaware)

Listeners: 1 out of 1065 total

Tarapoto Tower: 118.400

SSBL Air to Air (Archives)
Blumenau, Brazil

Feed Status: UP
Listen in your browser - HTML5 player(in browser, HTML5)
Click here to listen with your own player(launches your MP3 player)

METAR NOT AVAILABLE

SSBL Flight Activity (Flightaware)

Listeners: 0 out of 1065 total

Air to Air: 123.450

SUMU Twr/App
Montevideo, Uruguay

Feed Status: DOWN
Offline since: 2019-06-16 10:06:03 UTC

SUMU 161318Z 11017KT 5000 -RA BR BKN003 OVC070 16/16 Q1024

SUMU Approach: 119.200
SUMU Tower: 118.100

Sponsored by Aeroclub Aerosur - Escuela de Vuelo

SUMU Twr/App/Radar
Montevideo, Uruguay

Feed Status: DOWN
Offline since: 2019-06-16 10:06:03 UTC

SUMU 161318Z 11017KT 5000 -RA BR BKN003 OVC070 16/16 Q1024

SUMU Approach: 120.200
SUMU Approach: 119.200
SUMU Info: 121.800
SUMU Informacion: 121.800
SUMU Radar Control: 128.500
SUMU Radar Control: 126.300
SUMU Radar Control: 128.000
SUMU Tower: 118.100

Feed provided by:

Volemos.com.uy

Aviación Uruguaya - Volemos.com.uy

SUPU/SUPC Misc (Archives)
Paysandu, Uruguay

Feed Status: UP
Listen in your browser - HTML5 player(in browser, HTML5)
Click here to listen with your own player(launches your MP3 player)

SUPU 040900Z 10005KT 9999 FEW020TCU BKN070 FEW200 23/23 Q1010

SUPU Flight Activity (Flightaware)

Listeners: 0 out of 1065 total

Chalkling Tower: 118.700
Paysandu Tower: 118.200

Courtesy of: Aeroclub Paysandu

SVPR Twr/App/FIR (Archives)
Ciudad Guayana, Venezuela

Feed Status: UP
Listen in your browser - HTML5 player(in browser, HTML5)
Click here to listen with your own player(launches your MP3 player)

SVPR Flight Activity (Flightaware)

Listeners: 0 out of 1065 total

Emergency/Guard: 121.500
FIR 6: 126.000
Guayana Approach (Primary): 119.500
Guayana Approach (Secondary): 120.300
Guayana Tower (Primary): 118.000
Guayana Tower (Secondary): 123.500
SMC: 121.900

SVVA Gnd/Twr/App (Archives)
Valencia, Venezuela

Feed Status: UP
Listen in your browser - HTML5 player(in browser, HTML5)
Click here to listen with your own player(launches your MP3 player)

SVVA 161300Z /////KT 9999 SCT016 28/22 Q1016

SVVA Flight Activity (Flightaware)

Listeners: 0 out of 1065 total

Libertador Approach: 119.300
Valencia Ground: 121.900
Valencia Tower: 121.200

TNCA Twr/Apron/FIR (Archives)
Oranjestad, Aruba

Feed Status: UP
Listen in your browser - HTML5 player(in browser, HTML5)
Click here to listen with your own player(launches your MP3 player)

TNCA 161300Z 09018KT 9999 BKN016 29/25 Q1014 NOSIG

TNCA Flight Activity (Flightaware)

Listeners: 1 out of 1065 total

Beatrix Ground (Apron): 121.600
Beatrix Tower: 120.900
Beatrix Tower (secondary): 118.000
Curacao Control: 127.100
Emergency/Guard: 121.500
Search/Rescue: 123.100

NOTES: OurAirports.com

TNCB Tower (Archives)
Kralendijk, Bonaire

Feed Status: UP
Listen in your browser - HTML5 player(in browser, HTML5)
Click here to listen with your own player(launches your MP3 player)

TNCB 161255Z 10017KT 070V130 9999 BKN015 29/25 Q1014

TNCB Flight Activity (Flightaware)

Listeners: 2 out of 1065 total

Bonaire Tower: 118.700

TNCC Curacao Control (Archives)
Willemstad, Curacao

Feed Status: UP
Listen in your browser - HTML5 player(in browser, HTML5)
Click here to listen with your own player(launches your MP3 player)

TNCC 161300Z 11014KT 9999 SCT019 30/24 Q1014 NOSIG

TNCC Flight Activity (Flightaware)

Listeners: 1 out of 1065 total

Curacao Control: 124.100
Curacao Control: 127.100

TNCC Tower/Radar (Archives)
Willemstad, Curacao

Feed Status: UP
Listen in your browser - HTML5 player(in browser, HTML5)
Click here to listen with your own player(launches your MP3 player)

TNCC 161300Z 11014KT 9999 SCT019 30/24 Q1014 NOSIG

TNCC Flight Activity (Flightaware)

Listeners: 1 out of 1065 total

Hato Radar: 119.600
Hato Tower: 118.300

TNCC Twr/Radar/Control (Archives)
Willemstad, Curacao

Feed Status: UP
Listen in your browser - HTML5 player(in browser, HTML5)
Click here to listen with your own player(launches your MP3 player)

TNCC 161300Z 11014KT 9999 SCT019 30/24 Q1014 NOSIG

TNCC Flight Activity (Flightaware)

Listeners: 2 out of 1065 total

Curacao Control: 127.100
Hato Radar: 119.600
Hato Tower: 118.300

TNCE Info (Archives)
Oranjestad, Sint Eustatius

Feed Status: UP
Listen in your browser - HTML5 player(in browser, HTML5)
Click here to listen with your own player(launches your MP3 player)

TNCE 161255Z AUTO 07014KT 040V100 //// // ///////// 29/24 Q1018 RE//

TNCE Flight Activity (Flightaware)

Listeners: 1 out of 1065 total

Statia Info: 118.100

TTCP Gnd/Twr/App (Archives)
Scarborough, Trinidad and Tobago

Feed Status: UP
Listen in your browser - HTML5 player(in browser, HTML5)
Click here to listen with your own player(launches your MP3 player)

TTCP 161300Z 11013KT 9999 VCSH FEW018 29/23 Q1015 NOSIG RMK VCSH-NE

TTCP Flight Activity (Flightaware)

Listeners: 0 out of 1065 total

Piarco Approach: 119.000
Robinson Ground: 121.700
Robinson Tower: 118.400

TTPP Apron/Gnd/Twr (Archives)
Port of Spain, Trinidad and Tobago

Feed Status: UP
Listen in your browser - HTML5 player(in browser, HTML5)
Click here to listen with your own player(launches your MP3 player)

TTPP 161300Z 10012KT 9999 VCSH SCT018 29/25 Q1015 NOSIG RMK VCSH-SE SE

TTPP Flight Activity (Flightaware)

Listeners: 2 out of 1065 total

Piarco Apron: 121.750
Piarco Ground: 121.900
Piarco Tower: 118.100

TTPP Piarco Approach (Archives)
Port of Spain, Trinidad and Tobago

Feed Status: UP
Listen in your browser - HTML5 player(in browser, HTML5)
Click here to listen with your own player(launches your MP3 player)

TTPP 161300Z 10012KT 9999 VCSH SCT018 29/25 Q1015 NOSIG RMK VCSH-SE SE

TTPP Flight Activity (Flightaware)

Listeners: 1 out of 1065 total

Piarco Approach: 119.550
Piarco Approach: 119.000
Piarco Approach (backup): 124.000

TTPP Piarco Center (Archives)
Port of Spain, Trinidad and Tobago

Feed Status: UP
Listen in your browser - HTML5 player(in browser, HTML5)
Click here to listen with your own player(launches your MP3 player)

TTPP 161300Z 10012KT 9999 VCSH SCT018 29/25 Q1015 NOSIG RMK VCSH-SE SE

TTPP Flight Activity (Flightaware)

Listeners: 0 out of 1065 total

Piarco Center: 123.700
Piarco Center (Oceanic): 126.500
Piarco Center (South Sector): 125.400
Piarco Center Oceanic (Backup): 133.100